Time;durP1;ratioP1;P1;durP2;ratioP2;P2;SDS_P1;SDS_P2;PMS_P1;PMS_P2;Temp;Humidity;BMP_temperature;BMP_pressure;BME280_temperature;BME280_humidity;BME280_pressure;Samples;Min_cycle;Max_cycle;Signal;HPM_P1;HPM_P2
2023/05/05 00:00:59;;;;;;;6.38;3.70;;;;;;;11.92;100.00;101136.63;5076718;28;20036;-71
2023/05/05 00:03:26;;;;;;;4.97;3.10;;;;;;;12.15;100.00;101135.41;5059249;28;20044;-71
2023/05/05 00:05:56;;;;;;;4.38;2.92;;;;;;;12.28;100.00;101135.97;5053948;28;20051;-71
2023/05/05 00:08:22;;;;;;;3.22;2.88;;;;;;;12.33;100.00;101129.47;5071872;28;20060;-71
2023/05/05 00:10:51;;;;;;;2.72;2.53;;;;;;;12.37;100.00;101125.59;5062304;28;20035;-71
2023/05/05 00:13:18;;;;;;;7.43;3.40;;;;;;;12.39;100.00;101128.91;5068859;28;20059;-71
2023/05/05 00:15:44;;;;;;;4.72;2.50;;;;;;;12.37;100.00;101123.81;5073906;28;20040;-71
2023/05/05 00:18:11;;;;;;;3.20;2.83;;;;;;;12.29;100.00;101129.75;5066544;28;20032;-71
2023/05/05 00:20:37;;;;;;;5.10;2.55;;;;;;;12.21;100.00;101124.41;5074813;28;20037;-71
2023/05/05 00:23:03;;;;;;;6.80;3.25;;;;;;;12.18;100.00;101114.25;5070092;28;20040;-71
2023/05/05 00:25:29;;;;;;;3.78;3.00;;;;;;;12.36;100.00;101113.50;5065382;28;20360;-71
2023/05/05 00:27:55;;;;;;;3.47;2.42;;;;;;;12.62;100.00;101109.34;5067930;28;20036;-71
2023/05/05 00:30:21;;;;;;;4.38;2.90;;;;;;;12.80;100.00;101112.00;5069665;28;20078;-71
2023/05/05 00:32:48;;;;;;;3.38;3.00;;;;;;;12.90;100.00;101105.78;5070867;28;20191;-71
2023/05/05 00:35:14;;;;;;;4.28;2.65;;;;;;;12.94;100.00;101106.31;5073384;28;20086;-71
2023/05/05 00:37:40;;;;;;;3.17;2.88;;;;;;;12.99;100.00;101100.66;5073656;28;20036;-71
2023/05/05 00:40:07;;;;;;;3.55;2.65;;;;;;;13.01;100.00;101109.19;5064237;28;20042;-71
2023/05/05 00:42:41;;;;;;;3.97;3.05;;;;;;;13.02;100.00;101110.84;5072983;28;20064;-71
2023/05/05 00:45:08;;;;;;;2.42;2.22;;;;;;;13.00;100.00;101102.31;5067071;28;20105;-71
2023/05/05 00:47:34;;;;;;;3.20;2.35;;;;;;;12.92;100.00;101098.63;5068829;28;20075;-71
2023/05/05 00:50:02;;;;;;;2.92;2.63;;;;;;;12.82;100.00;101097.81;5073595;28;20065;-72
2023/05/05 00:52:28;;;;;;;5.35;3.05;;;;;;;12.69;100.00;101099.97;5067319;28;20039;-71
2023/05/05 00:54:55;;;;;;;3.47;2.30;;;;;;;12.50;100.00;101098.22;5068749;28;20102;-71
2023/05/05 00:57:20;;;;;;;4.25;2.97;;;;;;;12.41;100.00;101093.00;5067546;28;20114;-71
2023/05/05 00:59:50;;;;;;;5.75;3.40;;;;;;;12.33;100.00;101088.47;5065622;28;20047;-71
2023/05/05 01:02:15;;;;;;;4.47;3.38;;;;;;;12.23;100.00;101090.31;5055991;28;20495;-71
2023/05/05 01:04:41;;;;;;;4.22;2.83;;;;;;;12.17;100.00;101090.88;5067070;28;20033;-71
2023/05/05 01:07:13;;;;;;;3.25;2.97;;;;;;;12.16;100.00;101092.66;5063375;28;20044;-72
2023/05/05 01:09:46;;;;;;;3.45;3.10;;;;;;;12.12;100.00;101086.06;5074461;28;20041;-71
2023/05/05 01:12:34;;;;;;;4.22;2.88;;;;;;;12.05;100.00;101084.97;5066205;28;20043;-71
2023/05/05 01:15:14;;;;;;;3.55;3.10;;;;;;;12.01;100.00;101085.38;5070000;28;20040;-72
2023/05/05 01:17:58;;;;;;;4.18;3.78;;;;;;;11.96;100.00;101088.41;5070819;28;20037;-72
2023/05/05 01:21:05;;;;;;;2.92;2.72;;;;;;;11.93;100.00;101080.84;5071544;28;20563;-71
2023/05/05 01:24:15;;;;;;;4.30;2.95;;;;;;;11.84;100.00;101085.09;5042324;28;20063;-71
2023/05/05 01:27:38;;;;;;;3.22;2.90;;;;;;;11.75;100.00;101078.09;5065850;28;20039;-71
2023/05/05 01:31:00;;;;;;;3.78;3.38;;;;;;;11.75;100.00;101077.25;5016127;28;20496;-72
2023/05/05 01:33:31;;;;;;;4.25;3.25;;;;;;;11.70;100.00;101074.22;4936351;29;20478;-71
2023/05/05 01:36:06;;;;;;;6.45;3.78;;;;;;;11.73;100.00;101073.97;4931565;29;20071;-72
2023/05/05 01:38:40;;;;;;;4.53;3.28;;;;;;;11.70;100.00;101076.84;4928362;29;20040;-71
2023/05/05 01:41:06;;;;;;;3.45;3.15;;;;;;;11.66;100.00;101081.50;4930114;29;20056;-71
2023/05/05 01:43:34;;;;;;;4.35;3.30;;;;;;;11.65;100.00;101077.25;4935212;29;20083;-71
2023/05/05 01:46:02;;;;;;;3.65;3.33;;;;;;;11.63;100.00;101074.78;4939269;29;20059;-72
2023/05/05 01:48:28;;;;;;;5.22;2.92;;;;;;;11.57;100.00;101075.31;4933336;29;20168;-71
2023/05/05 01:50:54;;;;;;;3.97;3.60;;;;;;;11.52;100.00;101081.91;4936456;29;20051;-71
2023/05/05 01:53:23;;;;;;;5.57;3.30;;;;;;;11.59;100.00;101069.97;4936718;29;20072;-71
2023/05/05 01:56:09;;;;;;;2.70;2.30;;;;;;;12.02;100.00;101066.94;4937854;29;20046;-71
2023/05/05 01:58:36;;;;;;;;;;;;;;;12.29;100.00;101056.59;4917708;29;20123;-71
2023/05/05 02:01:03;;;;;;;2.92;2.22;;;;;;;12.39;100.00;101060.97;4958778;28;21452;-71
2023/05/05 02:03:32;;;;;;;5.10;2.47;;;;;;;12.46;100.00;101056.81;4974134;28;20407;-71
2023/05/05 02:06:00;;;;;;;2.90;2.30;;;;;;;12.45;100.00;101052.56;4973020;28;20042;-71
2023/05/05 02:08:29;;;;;;;2.63;2.15;;;;;;;12.46;100.00;101054.22;5058693;28;20062;-72
2023/05/05 02:10:56;;;;;;;5.40;1.80;;;;;;;12.43;100.00;101054.50;5052022;28;20191;-71
2023/05/05 02:13:24;;;;;;;3.30;2.40;;;;;;;12.40;100.00;101047.75;5051894;28;20041;-72
2023/05/05 02:15:53;;;;;;;4.00;2.67;;;;;;;12.41;100.00;101048.59;5074355;28;20039;-72
2023/05/05 02:18:21;;;;;;;4.82;2.72;;;;;;;12.37;100.00;101057.66;5038225;28;20075;-72
2023/05/05 02:20:47;;;;;;;3.92;2.47;;;;;;;12.32;100.00;101042.41;5073678;28;20063;-72
2023/05/05 02:23:13;;;;;;;4.30;2.53;;;;;;;12.35;100.00;101041.31;5070838;28;20055;-72
2023/05/05 02:25:50;;;;;;;2.92;1.98;;;;;;;12.37;100.00;101042.00;5066252;28;20795;-71
2023/05/05 02:28:34;;;;;;;4.03;2.20;;;;;;;12.38;100.00;101036.63;5045641;28;20056;-71
2023/05/05 02:31:01;;;;;;;4.55;2.83;;;;;;;12.38;100.00;101036.63;5066967;28;20033;-72
2023/05/05 02:33:31;;;;;;;7.82;2.40;;;;;;;12.38;100.00;101033.19;5067745;28;20020;-71
2023/05/05 02:36:04;;;;;;;3.95;2.42;;;;;;;12.41;100.00;101032.91;5070361;28;20024;-71
2023/05/05 02:38:32;;;;;;;4.35;2.03;;;;;;;12.43;100.00;101036.19;5069230;28;20040;-71
2023/05/05 02:40:59;;;;;;;5.40;2.25;;;;;;;12.39;100.00;101030.44;5072175;28;20093;-71
2023/05/05 02:43:29;;;;;;;4.07;2.70;;;;;;;12.25;100.00;101026.50;5062559;28;20123;-71
2023/05/05 02:45:55;;;;;;;6.68;2.40;;;;;;;12.19;100.00;101028.84;5073226;28;20133;-71
2023/05/05 02:48:21;;;;;;;3.20;2.88;;;;;;;12.16;100.00;101040.41;5071679;28;20483;-71
2023/05/05 02:50:48;;;;;;;2.95;2.55;;;;;;;12.17;100.00;101033.41;5061708;28;20040;-71
2023/05/05 02:53:14;;;;;;;3.00;2.10;;;;;;;12.17;100.00;101041.22;5069703;28;20033;-71
2023/05/05 02:55:51;;;;;;;7.28;2.53;;;;;;;12.17;100.00;101036.84;5073082;28;20038;-71
2023/05/05 02:58:30;;;;;;;5.38;2.25;;;;;;;12.16;100.00;101029.97;5024719;28;20028;-72
2023/05/05 03:01:05;;;;;;;2.72;2.28;;;;;;;12.11;100.00;101037.38;5059265;28;20365;-72
2023/05/05 03:03:39;;;;;;;3.25;2.38;;;;;;;12.11;100.00;101039.19;5061678;28;20071;-72
2023/05/05 03:06:20;;;;;;;7.30;2.33;;;;;;;12.03;100.00;101045.09;5052705;28;20041;-71
2023/05/05 03:08:54;;;;;;;4.13;2.00;;;;;;;12.02;100.00;101035.63;5034698;28;20044;-71
2023/05/05 03:11:38;;;;;;;2.95;2.47;;;;;;;12.05;100.00;101040.56;5076340;28;20042;-72
2023/05/05 03:14:17;;;;;;;7.93;2.58;;;;;;;12.07;100.00;101046.47;5066801;28;20051;-72
2023/05/05 03:16:45;;;;;;;4.15;2.22;;;;;;;12.11;100.00;101039.19;5061853;28;20115;-72
2023/05/05 03:19:12;;;;;;;2.90;2.60;;;;;;;12.16;100.00;101047.41;5067912;28;20057;-72
2023/05/05 03:21:39;;;;;;;5.85;2.60;;;;;;;12.18;100.00;101040.28;5070528;28;20504;-71
2023/05/05 03:24:16;;;;;;;2.50;1.98;;;;;;;12.16;100.00;101044.81;5069045;28;20040;-72
2023/05/05 03:26:53;;;;;;;3.15;2.03;;;;;;;12.14;99.75;101051.97;5046942;28;20119;-72
2023/05/05 03:29:19;;;;;;;2.83;2.50;;;;;;;12.16;100.00;101045.63;5058079;28;20092;-71
2023/05/05 03:31:45;;;;;;;4.53;1.83;;;;;;;12.11;100.00;101047.00;5066359;28;20078;-71
2023/05/05 03:34:11;;;;;;;2.47;1.80;;;;;;;12.07;100.00;101041.25;5051532;28;20040;-71
2023/05/05 03:36:38;;;;;;;2.55;1.85;;;;;;;12.07;100.00;101041.25;5069540;28;20461;-71
2023/05/05 03:39:03;;;;;;;2.67;1.85;;;;;;;12.09;100.00;101041.94;5073019;28;20388;-71
2023/05/05 03:41:29;;;;;;;3.53;1.92;;;;;;;12.13;99.69;101043.31;5069463;28;20056;-71
2023/05/05 03:43:55;;;;;;;2.50;2.10;;;;;;;12.13;98.29;101048.53;5068636;28;20517;-71
2023/05/05 03:46:20;;;;;;;3.03;1.80;;;;;;;12.16;98.28;101045.63;5072821;28;20032;-72
2023/05/05 03:48:47;;;;;;;5.05;2.30;;;;;;;12.15;98.03;101046.59;5075177;28;20108;-71
2023/05/05 03:51:13;;;;;;;2.65;2.15;;;;;;;12.12;98.75;101043.44;5066085;28;20104;-71
2023/05/05 03:53:39;;;;;;;2.72;2.42;;;;;;;12.10;98.71;101046.19;5064871;28;20476;-71
2023/05/05 03:56:05;;;;;;;3.72;1.77;;;;;;;12.10;98.73;101040.97;5065259;28;20069;-72
2023/05/05 03:58:31;;;;;;;10.18;2.35;;;;;;;12.12;98.63;101043.44;5051562;28;20070;-71
2023/05/05 04:00:57;;;;;;;4.22;2.13;;;;;;;12.06;99.13;101038.78;5064324;28;20448;-72
2023/05/05 04:03:23;;;;;;;3.25;2.00;;;;;;;11.98;100.00;101041.25;5064423;28;20090;-71
2023/05/05 04:05:49;;;;;;;3.22;2.25;;;;;;;11.97;100.00;101043.03;5071138;28;20032;-72
2023/05/05 04:08:15;;;;;;;5.85;1.88;;;;;;;11.95;100.00;101037.13;5077904;28;20455;-72
2023/05/05 04:10:41;;;;;;;4.22;2.30;;;;;;;11.92;100.00;101042.63;5065711;28;21347;-72
2023/05/05 04:13:07;;;;;;;3.30;2.10;;;;;;;11.91;100.00;101047.03;5075503;28;20046;-72
2023/05/05 04:15:33;;;;;;;3.70;2.00;;;;;;;11.95;100.00;101047.56;5063305;28;20064;-71
2023/05/05 04:17:59;;;;;;;3.05;2.55;;;;;;;12.01;100.00;101044.41;5077624;28;20036;-72
2023/05/05 04:20:25;;;;;;;5.05;2.38;;;;;;;12.04;99.96;101048.53;5068317;28;20051;-76
2023/05/05 04:22:50;;;;;;;6.05;2.63;;;;;;;12.03;99.70;101047.72;5060831;28;20032;-77
2023/05/05 04:25:16;;;;;;;2.92;2.13;;;;;;;12.07;99.61;101049.09;5068761;28;20028;-77
2023/05/05 04:27:42;;;;;;;3.15;2.15;;;;;;;12.13;99.55;101048.53;5064112;28;20028;-77
2023/05/05 04:30:08;;;;;;;3.90;1.92;;;;;;;12.19;98.90;101040.13;5065704;28;20054;-78
2023/05/05 04:32:34;;;;;;;2.53;2.13;;;;;;;12.26;98.03;101045.63;5063301;28;20115;-78
2023/05/05 04:34:59;;;;;;;2.95;2.28;;;;;;;12.30;97.76;101050.38;5067092;28;20514;-77
2023/05/05 04:37:25;;;;;;;4.40;2.20;;;;;;;12.37;97.09;101053.25;5061497;28;20506;-77
2023/05/05 04:39:52;;;;;;;4.35;2.00;;;;;;;12.41;96.72;101051.19;5068766;28;20418;-77
2023/05/05 04:42:17;;;;;;;3.95;1.92;;;;;;;12.43;95.93;101051.88;5074556;28;20031;-74
2023/05/05 04:44:43;;;;;;;3.55;2.60;;;;;;;12.49;95.38;101052.13;5063842;28;20475;-76
2023/05/05 04:47:09;;;;;;;7.20;2.10;;;;;;;12.61;94.55;101052.78;5059829;28;20051;-75
2023/05/05 04:49:35;;;;;;;2.67;1.85;;;;;;;12.69;93.82;101050.28;5057553;28;20036;-75
2023/05/05 04:52:01;;;;;;;3.05;1.63;;;;;;;12.75;93.74;101051.50;5063639;28;20040;-75
2023/05/05 04:54:27;;;;;;;4.18;2.20;;;;;;;12.78;93.77;101059.03;5059331;28;20036;-75
2023/05/05 04:56:53;;;;;;;3.10;2.25;;;;;;;12.69;94.69;101058.13;5059098;28;20048;-75
2023/05/05 04:59:19;;;;;;;3.75;2.58;;;;;;;12.66;96.13;101068.88;5066214;28;20384;-75
2023/05/05 05:01:45;;;;;;;3.35;2.83;;;;;;;12.61;96.68;101060.63;5066480;28;20039;-75
2023/05/05 05:04:11;;;;;;;3.50;2.88;;;;;;;12.54;97.59;101059.56;5066629;28;20044;-76
2023/05/05 05:06:37;;;;;;;4.53;2.72;;;;;;;12.55;97.56;101062.03;5067840;28;20032;-76
2023/05/05 05:09:02;;;;;;;3.70;2.08;;;;;;;12.68;96.09;101061.72;5070679;28;20483;-75
2023/05/05 05:11:28;;;;;;;3.85;2.33;;;;;;;12.81;94.21;101056.13;5069519;28;20024;-75
2023/05/05 05:13:54;;;;;;;3.92;2.00;;;;;;;12.93;93.67;101062.81;5065384;28;20041;-76
2023/05/05 05:16:20;;;;;;;5.97;2.25;;;;;;;13.03;93.94;101053.13;5065663;28;20116;-75
2023/05/05 05:18:46;;;;;;;8.38;3.30;;;;;;;13.04;94.24;101053.97;5051311;28;20104;-77
2023/05/05 05:21:12;;;;;;;6.20;2.17;;;;;;;13.11;94.37;101053.22;5070638;28;20635;-77
2023/05/05 05:23:38;;;;;;;3.30;2.67;;;;;;;13.22;93.93;101054.88;5054686;28;20066;-76
2023/05/05 05:26:05;;;;;;;10.00;3.30;;;;;;;13.28;93.64;101054.25;5062058;28;20064;-76
2023/05/05 05:28:30;;;;;;;5.95;3.75;;;;;;;13.37;93.48;101055.97;5069099;28;20116;-77
2023/05/05 05:30:56;;;;;;;4.25;1.85;;;;;;;13.38;92.86;101048.94;5060825;28;20123;-77
2023/05/05 05:33:22;;;;;;;4.10;2.40;;;;;;;13.40;91.67;101050.44;5065727;28;20041;-76
2023/05/05 05:35:48;;;;;;;4.40;2.55;;;;;;;13.46;92.27;101047.25;5069265;28;20036;-78
2023/05/05 05:38:16;;;;;;;4.25;2.90;;;;;;;13.53;92.70;101047.47;5066145;28;20024;-77
2023/05/05 05:40:42;;;;;;;4.32;2.50;;;;;;;13.58;93.31;101047.84;5055660;28;20067;-79
2023/05/05 05:43:07;;;;;;;4.38;2.42;;;;;;;13.67;93.17;101049.56;5070968;28;20090;-78
2023/05/05 05:45:32;;;;;;;5.40;1.98;;;;;;;13.70;90.94;101053.69;5069423;28;20030;-79
2023/05/05 05:47:58;;;;;;;4.47;2.00;;;;;;;13.79;89.55;101052.75;5064221;28;20029;-77
2023/05/05 05:50:26;;;;;;;3.22;1.90;;;;;;;13.91;88.85;101056.78;5075821;28;20028;-81
2023/05/05 05:52:52;;;;;;;3.25;2.00;;;;;;;13.98;88.32;101057.84;5074468;28;20116;-78
2023/05/05 05:55:18;;;;;;;3.40;1.98;;;;;;;14.10;88.18;101064.47;5073019;28;20437;-82
2023/05/05 05:57:43;;;;;;;2.42;1.90;;;;;;;14.36;87.57;101061.03;5075118;28;20025;-79
2023/05/05 06:00:09;;;;;;;3.92;1.75;;;;;;;14.71;84.94;101063.53;5070322;28;20047;-79
2023/05/05 06:02:34;;;;;;;2.03;1.77;;;;;;;14.79;84.53;101063.59;5080314;28;20024;-79
2023/05/05 06:05:00;;;;;;;3.60;1.63;;;;;;;14.75;84.06;101066.69;5076783;28;20085;-79
2023/05/05 06:07:28;;;;;;;2.35;1.90;;;;;;;14.82;83.71;101062.44;5080710;28;20040;-78
2023/05/05 06:09:53;;;;;;;2.22;1.58;;;;;;;15.13;82.26;101057.47;5080009;28;20039;-79
2023/05/05 06:12:18;;;;;;;3.47;1.70;;;;;;;15.38;80.72;101055.75;5081628;28;20433;-80
2023/05/05 06:14:44;;;;;;;1.70;1.55;;;;;;;15.52;79.63;101061.19;5075206;28;20047;-79
2023/05/05 06:17:09;;;;;;;1.65;1.38;;;;;;;15.53;78.63;101062.00;5053085;28;20135;-79
2023/05/05 06:19:38;;;;;;;3.42;1.60;;;;;;;15.42;78.71;101065.75;5072609;28;20058;-78
2023/05/05 06:22:03;;;;;;;3.42;1.83;;;;;;;15.36;79.00;101061.16;5070650;28;20032;-79
2023/05/05 06:24:30;;;;;;;2.35;1.80;;;;;;;15.35;79.42;101061.31;5074072;28;20038;-79
2023/05/05 06:26:58;;;;;;;4.15;1.65;;;;;;;15.35;79.95;101049.00;5068471;28;20058;-78
2023/05/05 06:29:23;;;;;;;3.97;2.03;;;;;;;15.38;80.41;101045.22;5075371;28;20472;-79
2023/05/05 06:31:49;;;;;;;3.35;1.70;;;;;;;15.54;80.06;101047.88;5072713;28;20046;-73
2023/05/05 06:34:14;;;;;;;4.93;1.83;;;;;;;15.46;79.94;101046.06;5054483;28;20530;-72
2023/05/05 06:36:40;;;;;;;2.08;1.35;;;;;;;15.54;80.39;101047.88;5052042;28;20428;-72
2023/05/05 06:39:05;;;;;;;5.03;1.83;;;;;;;15.63;80.19;101043.47;5076285;28;20028;-73
2023/05/05 06:41:31;;;;;;;4.20;1.63;;;;;;;15.54;80.67;101043.47;5072091;28;20384;-72
2023/05/05 06:43:56;;;;;;;5.35;1.60;;;;;;;15.60;80.87;101048.06;5070946;28;20025;-72
2023/05/05 06:46:22;;;;;;;3.00;1.50;;;;;;;15.75;80.75;101044.81;5071912;28;20490;-77
2023/05/05 06:48:47;;;;;;;8.45;2.03;;;;;;;15.87;80.38;101039.06;5072639;28;20032;-78
2023/05/05 06:51:14;;;;;;;6.60;1.95;;;;;;;15.96;79.93;101042.50;5072254;28;20111;-77
2023/05/05 06:53:40;;;;;;;2.10;1.17;;;;;;;16.05;80.33;101049.41;5068481;28;20035;-77
2023/05/05 06:56:05;;;;;;;2.22;1.38;;;;;;;16.18;79.71;101051.50;5072259;28;20033;-76
2023/05/05 06:58:31;;;;;;;2.55;1.50;;;;;;;16.19;79.19;101043.44;5068983;28;20028;-77
2023/05/05 07:00:56;;;;;;;4.60;1.58;;;;;;;16.34;78.90;101043.59;5054797;28;20048;-72
2023/05/05 07:03:22;;;;;;;8.13;1.70;;;;;;;16.39;78.13;101043.91;5074527;28;20129;-72
2023/05/05 07:05:47;;;;;;;3.78;1.45;;;;;;;16.48;78.09;101044.72;5071202;28;20021;-71
2023/05/05 07:08:12;;;;;;;6.60;2.25;;;;;;;16.57;77.50;101046.31;5071388;28;20044;-71
2023/05/05 07:10:38;;;;;;;3.65;1.50;;;;;;;16.57;77.15;101039.22;5070421;28;20115;-71
2023/05/05 07:13:05;;;;;;;3.17;1.60;;;;;;;16.64;76.92;101042.03;5072010;28;20032;-73
2023/05/05 07:15:31;;;;;;;2.90;1.75;;;;;;;16.76;76.72;101045.94;5063777;28;20044;-71
2023/05/05 07:17:56;;;;;;;5.93;2.17;;;;;;;16.88;76.53;101039.31;5064299;28;20511;-71
2023/05/05 07:20:22;;;;;;;3.42;1.27;;;;;;;16.93;75.53;101030.91;5069395;28;20033;-71
2023/05/05 07:22:47;;;;;;;6.50;1.60;;;;;;;17.03;75.25;101036.75;5065053;28;20055;-71
2023/05/05 07:25:13;;;;;;;3.92;1.17;;;;;;;17.11;74.51;101025.38;5070730;28;20033;-71
2023/05/05 07:27:39;;;;;;;4.60;1.48;;;;;;;17.30;74.61;101032.84;5074089;28;20036;-71
2023/05/05 07:30:05;;;;;;;1.40;1.23;;;;;;;17.43;74.06;101027.81;5060227;28;20484;-72
2023/05/05 07:32:30;;;;;;;3.03;1.73;;;;;;;17.53;72.88;101023.09;5066370;28;20334;-71
2023/05/05 07:34:56;;;;;;;5.40;1.63;;;;;;;17.72;71.99;101026.31;5063982;28;20036;-71
2023/05/05 07:37:21;;;;;;;3.38;1.40;;;;;;;17.80;71.54;101023.59;5070457;28;20094;-73
2023/05/05 07:39:47;;;;;;;2.90;1.33;;;;;;;17.86;71.65;101017.63;5064951;28;20032;-72
2023/05/05 07:42:13;;;;;;;2.25;1.33;;;;;;;17.89;70.32;101018.09;5067610;28;20047;-73
2023/05/05 07:44:39;;;;;;;3.08;1.27;;;;;;;18.04;70.13;101025.19;5071166;28;20041;-72
2023/05/05 07:47:04;;;;;;;3.53;1.20;;;;;;;18.31;70.03;101021.13;5069162;28;20156;-74
2023/05/05 07:49:30;;;;;;;2.40;1.40;;;;;;;18.46;69.47;101016.66;5070496;28;20021;-73
2023/05/05 07:51:55;;;;;;;2.20;1.10;;;;;;;18.61;69.19;101014.84;5071116;28;20039;-73
2023/05/05 07:54:21;;;;;;;4.35;1.30;;;;;;;18.64;68.31;101019.78;5060839;28;20031;-73
2023/05/05 07:56:46;;;;;;;1.98;1.13;;;;;;;18.72;68.28;101019.69;5067460;28;20032;-73
2023/05/05 07:59:12;;;;;;;2.20;1.05;;;;;;;18.89;67.86;101017.66;5070115;28;20115;-73
2023/05/05 08:01:38;;;;;;;2.22;1.50;;;;;;;18.95;67.02;101016.06;5066960;28;20029;-73
2023/05/05 08:04:04;;;;;;;1.58;1.02;;;;;;;19.04;67.08;101013.13;5052007;28;20464;-72
2023/05/05 08:06:30;;;;;;;3.53;1.27;;;;;;;19.11;66.91;101018.50;5070362;28;20028;-71
2023/05/05 08:08:58;;;;;;;3.28;1.27;;;;;;;19.24;66.77;101018.63;5069889;28;20495;-72
2023/05/05 08:11:24;;;;;;;9.95;1.65;;;;;;;19.62;66.21;101018.41;5063838;28;20024;-72
2023/05/05 08:13:50;;;;;;;3.47;1.10;;;;;;;19.88;65.52;101011.50;5070116;28;20131;-72
2023/05/05 08:16:15;;;;;;;4.00;1.30;;;;;;;20.06;65.33;101011.03;5070196;28;20556;-72
2023/05/05 08:18:41;;;;;;;1.88;0.80;;;;;;;20.21;65.22;101018.84;5070821;28;20314;-72
2023/05/05 08:21:08;;;;;;;4.32;1.55;;;;;;;20.48;64.94;101001.31;5070601;28;20032;-72
2023/05/05 08:23:34;;;;;;;2.75;0.82;;;;;;;20.60;65.65;101004.22;5060877;28;20503;-72
2023/05/05 08:26:01;;;;;;;3.67;1.20;;;;;;;20.74;64.91;101006.75;5063280;28;20056;-72
2023/05/05 08:28:27;;;;;;;2.00;1.35;;;;;;;20.58;64.47;101007.06;5070315;28;20062;-72
2023/05/05 08:30:52;;;;;;;3.70;1.40;;;;;;;20.62;64.53;101008.31;5070891;28;20024;-72
2023/05/05 08:33:18;;;;;;;3.08;1.40;;;;;;;20.57;65.30;101005.44;5052168;28;20460;-72
2023/05/05 08:35:43;;;;;;;2.88;1.10;;;;;;;20.50;65.92;101010.69;5070218;28;20390;-72
2023/05/05 08:38:10;;;;;;;2.45;1.13;;;;;;;20.69;64.89;101003.88;5070167;28;20025;-71
2023/05/05 08:40:37;;;;;;;2.90;1.48;;;;;;;20.71;64.69;100999.19;5058296;28;20032;-72
2023/05/05 08:43:03;;;;;;;1.40;0.90;;;;;;;20.66;64.03;100998.16;5052659;28;20051;-72
2023/05/05 08:45:29;;;;;;;2.20;1.30;;;;;;;20.93;64.36;101004.34;5070187;28;20500;-72
2023/05/05 08:48:01;;;;;;;4.03;0.80;;;;;;;21.13;63.19;100999.91;5070684;28;20056;-73
2023/05/05 08:50:28;;;;;;;4.60;1.15;;;;;;;21.11;62.95;101004.59;5051783;28;20028;-72
2023/05/05 08:53:09;;;;;;;2.03;0.90;;;;;;;21.24;61.58;101002.03;5069854;28;20024;-73
2023/05/05 08:55:44;;;;;;;2.08;1.20;;;;;;;21.01;62.39;101001.50;5069441;28;20074;-73
2023/05/05 08:58:12;;;;;;;1.85;1.20;;;;;;;21.04;63.15;101007.22;5066687;28;20032;-73
2023/05/05 09:00:41;;;;;;;1.88;0.88;;;;;;;21.16;63.57;101010.13;5046756;28;20366;-72
2023/05/05 09:03:07;;;;;;;1.85;0.98;;;;;;;21.32;63.86;101001.81;5064990;28;20154;-72
2023/05/05 09:05:32;;;;;;;5.18;1.30;;;;;;;21.44;63.65;101002.03;5068243;28;20115;-72
2023/05/05 09:08:00;;;;;;;3.00;1.13;;;;;;;21.45;63.35;100998.34;5060720;28;20094;-73
2023/05/05 09:10:28;;;;;;;3.95;1.38;;;;;;;21.54;63.36;100999.78;5067679;28;20417;-72
2023/05/05 09:12:54;;;;;;;1.75;1.40;;;;;;;21.62;63.00;100989.00;5069725;28;20032;-73
2023/05/05 09:15:20;;;;;;;2.30;1.30;;;;;;;21.67;62.86;100996.34;5069148;28;20057;-73
2023/05/05 09:17:46;;;;;;;3.67;1.70;;;;;;;21.59;62.30;100992.03;5070560;28;20039;-73
2023/05/05 09:20:13;;;;;;;1.40;1.17;;;;;;;21.33;62.63;100992.00;5061333;28;20476;-74
2023/05/05 09:22:40;;;;;;;1.58;1.40;;;;;;;21.37;63.19;100991.41;5049492;28;20479;-73
2023/05/05 09:25:09;;;;;;;2.20;1.42;;;;;;;21.50;61.31;100988.78;5068511;28;20044;-73
2023/05/05 09:27:48;;;;;;;2.47;1.00;;;;;;;21.25;57.14;100981.63;5056237;28;20028;-74
2023/05/05 09:30:25;;;;;;;1.58;1.08;;;;;;;21.07;60.29;100979.53;5067819;28;20036;-73
2023/05/05 09:32:53;;;;;;;3.95;1.45;;;;;;;21.14;60.94;100975.88;5050250;28;20128;-73
2023/05/05 09:35:21;;;;;;;2.95;1.08;;;;;;;21.23;61.22;100979.19;5069622;28;20032;-73
2023/05/05 09:37:47;;;;;;;3.13;1.17;;;;;;;21.14;61.65;100972.41;5037684;28;20039;-73
2023/05/05 09:40:14;;;;;;;1.10;1.00;;;;;;;21.33;61.81;100976.94;5072016;28;20036;-74
2023/05/05 09:42:41;;;;;;;3.55;1.40;;;;;;;21.41;61.63;100976.72;5066234;28;20036;-74
2023/05/05 09:45:19;;;;;;;2.72;0.68;;;;;;;21.12;60.48;100974.44;5068924;28;20480;-75
2023/05/05 09:47:46;;;;;;;2.03;1.05;;;;;;;21.17;62.32;100980.78;5059519;28;20070;-74
2023/05/05 09:50:14;;;;;;;2.83;1.35;;;;;;;21.26;62.49;100973.47;5067671;28;20055;-74
2023/05/05 09:53:06;;;;;;;5.28;1.20;;;;;;;21.29;62.51;100977.53;5023084;28;20029;-74
2023/05/05 09:55:32;;;;;;;5.00;0.80;;;;;;;21.24;61.40;100980.81;5051705;28;20051;-73
2023/05/05 09:58:17;;;;;;;4.40;0.75;;;;;;;21.04;59.59;100972.78;5058598;28;20021;-73
2023/05/05 10:00:42;;;;;;;1.47;0.90;;;;;;;21.12;61.52;100980.56;5056548;28;20383;-73
2023/05/05 10:03:07;;;;;;;1.73;1.05;;;;;;;21.27;62.16;100980.38;5064443;28;20278;-72
2023/05/05 10:05:49;;;;;;;2.42;0.85;;;;;;;21.06;58.98;100985.84;5058097;28;20116;-72
2023/05/05 10:08:16;;;;;;;2.10;0.88;;;;;;;20.93;59.27;100983.16;5056562;28;20041;-74
2023/05/05 10:10:57;;;;;;;1.02;0.70;;;;;;;20.80;57.16;100984.72;5059873;28;20028;-74
2023/05/05 10:13:23;;;;;;;1.92;0.70;;;;;;;20.75;59.93;100976.59;5066797;28;20040;-73
2023/05/05 10:15:50;;;;;;;1.23;0.55;;;;;;;20.91;60.64;100982.53;5071686;28;20040;-73
2023/05/05 10:18:24;;;;;;;1.65;0.73;;;;;;;21.10;59.68;100971.19;5074869;28;20040;-74
2023/05/05 10:21:02;;;;;;;2.55;1.02;;;;;;;21.36;58.88;100968.56;5068745;28;20128;-73
2023/05/05 10:23:38;;;;;;;2.70;1.00;;;;;;;21.18;56.62;100968.34;5067601;28;20086;-74
2023/05/05 10:26:06;;;;;;;3.90;1.05;;;;;;;21.17;55.64;100969.34;5069577;28;20032;-74
2023/05/05 10:28:36;;;;;;;2.95;1.10;;;;;;;20.95;56.58;100965.22;5057665;28;20024;-80
2023/05/05 10:31:05;;;;;;;2.20;0.80;;;;;;;21.04;56.35;100964.84;5064127;28;20028;-73
2023/05/05 10:33:43;;;;;;;5.50;0.90;;;;;;;21.20;58.46;100964.47;5047639;28;20044;-74
2023/05/05 10:36:09;;;;;;;2.53;1.48;;;;;;;21.29;58.51;100957.16;5052046;28;20112;-74
2023/05/05 10:38:37;;;;;;;3.95;1.10;;;;;;;21.34;58.68;100965.31;5072804;28;20082;-74
2023/05/05 10:41:03;;;;;;;5.75;1.42;;;;;;;21.18;58.88;100955.91;5070196;28;20110;-74
2023/05/05 10:43:30;;;;;;;2.05;0.95;;;;;;;21.34;61.14;100943.28;5048048;28;20055;-74
2023/05/05 10:45:57;;;;;;;2.53;0.85;;;;;;;21.46;59.95;100946.97;5070647;28;20028;-74
2023/05/05 10:48:30;;;;;;;2.08;1.63;;;;;;;21.50;60.51;100941.06;5059562;28;20052;-74
2023/05/05 10:51:06;;;;;;;2.25;1.30;;;;;;;21.53;58.06;100930.03;5064285;28;20431;-74
2023/05/05 10:53:40;;;;;;;4.35;1.30;;;;;;;21.43;59.09;100932.28;5044819;28;20107;-74
2023/05/05 10:56:16;;;;;;;3.75;1.20;;;;;;;21.35;59.46;100929.84;5070315;28;20040;-74
2023/05/05 10:58:41;;;;;;;1.90;1.33;;;;;;;21.50;60.79;100927.81;5073574;28;20095;-73
2023/05/05 11:01:08;;;;;;;1.83;1.00;;;;;;;21.42;59.75;100924.53;5061011;28;20156;-73
2023/05/05 11:03:33;;;;;;;3.67;0.82;;;;;;;21.36;59.79;100920.06;5069163;28;20027;-73
2023/05/05 11:06:07;;;;;;;1.27;0.80;;;;;;;21.42;58.03;100911.28;5072792;28;20392;-73
2023/05/05 11:08:37;;;;;;;4.40;1.10;;;;;;;21.46;58.43;100915.16;5070534;28;20064;-73
2023/05/05 11:11:04;;;;;;;2.15;1.00;;;;;;;21.38;58.00;100905.56;5072085;28;20442;-73
2023/05/05 11:13:31;;;;;;;1.45;0.82;;;;;;;21.48;57.78;100906.00;5064426;28;20126;-73
2023/05/05 11:15:57;;;;;;;4.60;1.00;;;;;;;21.49;57.67;100899.66;5069182;28;20032;-74
2023/05/05 11:18:29;;;;;;;3.50;1.08;;;;;;;21.53;56.62;100903.53;5067394;28;20044;-73
2023/05/05 11:21:13;;;;;;;2.47;1.15;;;;;;;21.39;58.57;100893.13;5067828;28;20037;-72
2023/05/05 11:23:47;;;;;;;2.50;0.90;;;;;;;21.42;57.80;100895.38;5063537;28;20035;-71
2023/05/05 11:26:14;;;;;;;2.85;0.90;;;;;;;21.34;57.68;100896.41;5059109;28;20040;-71
2023/05/05 11:28:55;;;;;;;1.33;0.90;;;;;;;21.35;57.76;100890.09;5061324;28;20025;-71